sensor_id;sensor_type;location;lat;lon;timestamp;pressure;altitude;pressure_sealevel;temperature;humidity
59987;BME280;46181;51.498;5.392;2022-07-18T00:04:00;102310.2;;;22.88;39.28027
59987;BME280;46181;51.498;5.392;2022-07-18T00:08:30;102305.4;;;22.82;39.41504
59987;BME280;46181;51.498;5.392;2022-07-18T00:13:00;102299.2;;;22.76;39.75879
59987;BME280;46181;51.498;5.392;2022-07-18T00:17:30;102300.8;;;22.68;39.90332
59987;BME280;46181;51.498;5.392;2022-07-18T00:22:00;102296.3;;;22.61;39.98926
59987;BME280;46181;51.498;5.392;2022-07-18T00:26:30;102295.8;;;22.54;40.04102
59987;BME280;46181;51.498;5.392;2022-07-18T00:31:00;102293.3;;;22.48;40.16406
59987;BME280;46181;51.498;5.392;2022-07-18T00:35:30;102279.6;;;22.44;40.20605
59987;BME280;46181;51.498;5.392;2022-07-18T00:40:00;102275.2;;;22.39;40.30566
59987;BME280;46181;51.498;5.392;2022-07-18T00:44:31;102271.4;;;22.32;40.47559
59987;BME280;46181;51.498;5.392;2022-07-18T00:49:00;102272.4;;;22.26;40.59766
59987;BME280;46181;51.498;5.392;2022-07-18T00:53:30;102273;;;22.21;40.80176
59987;BME280;46181;51.498;5.392;2022-07-18T00:58:00;102274.3;;;22.17;41.06543
59987;BME280;46181;51.498;5.392;2022-07-18T01:02:30;102269.4;;;22.09;41.2207
59987;BME280;46181;51.498;5.392;2022-07-18T01:07:00;102264.9;;;22.02;41.45801
59987;BME280;46181;51.498;5.392;2022-07-18T01:11:30;102257.9;;;21.96;41.62598
59987;BME280;46181;51.498;5.392;2022-07-18T01:16:00;102262.4;;;21.92;41.73926
59987;BME280;46181;51.498;5.392;2022-07-18T01:20:30;102255.5;;;21.89;41.79492
59987;BME280;46181;51.498;5.392;2022-07-18T01:25:00;102249;;;21.83;41.8457
59987;BME280;46181;51.498;5.392;2022-07-18T01:29:30;102250.8;;;21.77;41.95801
59987;BME280;46181;51.498;5.392;2022-07-18T01:34:02;102247.5;;;21.68;42.2041
59987;BME280;46181;51.498;5.392;2022-07-18T01:38:30;102246.2;;;21.63;42.50098
59987;BME280;46181;51.498;5.392;2022-07-18T01:43:00;102249.3;;;21.6;42.66016
59987;BME280;46181;51.498;5.392;2022-07-18T01:47:30;102251.9;;;21.55;42.7832
59987;BME280;46181;51.498;5.392;2022-07-18T01:52:01;102250.9;;;21.5;42.84863
59987;BME280;46181;51.498;5.392;2022-07-18T01:56:30;102247.7;;;21.46;42.99512
59987;BME280;46181;51.498;5.392;2022-07-18T02:01:00;102246;;;21.41;43.24414
59987;BME280;46181;51.498;5.392;2022-07-18T02:05:30;102245;;;21.37;43.35742
59987;BME280;46181;51.498;5.392;2022-07-18T02:10:00;102241.6;;;21.3;43.39648
59987;BME280;46181;51.498;5.392;2022-07-18T02:14:30;102234;;;21.23;43.64453
59987;BME280;46181;51.498;5.392;2022-07-18T02:19:00;102225.7;;;21.15;43.84473
59987;BME280;46181;51.498;5.392;2022-07-18T02:23:30;102227.4;;;21.12;43.98145
59987;BME280;46181;51.498;5.392;2022-07-18T02:28:00;102219.4;;;21.07;44.33496
59987;BME280;46181;51.498;5.392;2022-07-18T02:32:30;102223.8;;;21.05;44.49512
59987;BME280;46181;51.498;5.392;2022-07-18T02:37:00;102217.8;;;20.98;44.65039
59987;BME280;46181;51.498;5.392;2022-07-18T02:41:30;102220.2;;;20.95;44.84375
59987;BME280;46181;51.498;5.392;2022-07-18T02:46:00;102215.6;;;20.91;44.85156
59987;BME280;46181;51.498;5.392;2022-07-18T02:50:30;102213.5;;;20.83;45.04004
59987;BME280;46181;51.498;5.392;2022-07-18T02:55:00;102211.4;;;20.8;45.23438
59987;BME280;46181;51.498;5.392;2022-07-18T02:59:30;102212.8;;;20.78;45.3125
59987;BME280;46181;51.498;5.392;2022-07-18T03:04:00;102217.7;;;20.73;45.36426
59987;BME280;46181;51.498;5.392;2022-07-18T03:08:30;102212.6;;;20.66;45.47363
59987;BME280;46181;51.498;5.392;2022-07-18T03:13:00;102207.9;;;20.58;45.73242
59987;BME280;46181;51.498;5.392;2022-07-18T03:17:30;102191.2;;;20.54;45.84375
59987;BME280;46181;51.498;5.392;2022-07-18T03:22:00;102182.8;;;20.53;45.76172
59987;BME280;46181;51.498;5.392;2022-07-18T03:26:30;102179;;;20.52;45.83008
59987;BME280;46181;51.498;5.392;2022-07-18T03:31:00;102177.1;;;20.51;45.89746
59987;BME280;46181;51.498;5.392;2022-07-18T03:35:30;102177.9;;;20.5;45.79199
59987;BME280;46181;51.498;5.392;2022-07-18T03:40:00;102174.8;;;20.48;45.88281
59987;BME280;46181;51.498;5.392;2022-07-18T03:44:30;102169.2;;;20.44;45.99414
59987;BME280;46181;51.498;5.392;2022-07-18T03:49:00;102180;;;20.41;46.12988
59987;BME280;46181;51.498;5.392;2022-07-18T03:53:30;102183.1;;;20.4;46.2334
59987;BME280;46181;51.498;5.392;2022-07-18T03:58:00;102179.1;;;20.42;46.29199
59987;BME280;46181;51.498;5.392;2022-07-18T04:02:30;102172.2;;;20.43;46.29395
59987;BME280;46181;51.498;5.392;2022-07-18T04:07:00;102176.3;;;20.41;46.4541
59987;BME280;46181;51.498;5.392;2022-07-18T04:11:30;102178.1;;;20.45;46.64258
59987;BME280;46181;51.498;5.392;2022-07-18T04:16:00;102176.9;;;20.48;46.62207
59987;BME280;46181;51.498;5.392;2022-07-18T04:20:30;102170.9;;;20.56;46.58496
59987;BME280;46181;51.498;5.392;2022-07-18T04:25:00;102159.9;;;20.66;46.69922
59987;BME280;46181;51.498;5.392;2022-07-18T04:29:30;102156.7;;;20.76;46.61719
59987;BME280;46181;51.498;5.392;2022-07-18T04:34:00;102151.5;;;20.92;46.21777
59987;BME280;46181;51.498;5.392;2022-07-18T04:38:30;102147;;;21.03;45.77734
59987;BME280;46181;51.498;5.392;2022-07-18T04:43:00;102151.6;;;21.16;45.58301
59987;BME280;46181;51.498;5.392;2022-07-18T04:47:30;102155.2;;;21.36;45.35938
59987;BME280;46181;51.498;5.392;2022-07-18T04:52:00;102152.9;;;21.54;45.08887
59987;BME280;46181;51.498;5.392;2022-07-18T04:56:30;102152.9;;;21.7;44.89648
59987;BME280;46181;51.498;5.392;2022-07-18T05:01:00;102160.1;;;21.85;44.46973
59987;BME280;46181;51.498;5.392;2022-07-18T05:05:30;102161.7;;;22.08;44.33008
59987;BME280;46181;51.498;5.392;2022-07-18T05:10:00;102154.6;;;22.33;44.03027
59987;BME280;46181;51.498;5.392;2022-07-18T05:14:30;102160.2;;;22.64;43.3291
59987;BME280;46181;51.498;5.392;2022-07-18T05:19:00;102157.6;;;22.77;42.58691
59987;BME280;46181;51.498;5.392;2022-07-18T05:23:30;102160.7;;;22.9;42.12109
59987;BME280;46181;51.498;5.392;2022-07-18T05:28:01;102155.9;;;23.1;42.12891
59987;BME280;46181;51.498;5.392;2022-07-18T05:32:30;102152.3;;;23.34;41.47656
59987;BME280;46181;51.498;5.392;2022-07-18T05:37:00;102152.4;;;23.57;41.46191
59987;BME280;46181;51.498;5.392;2022-07-18T05:41:30;102158.5;;;23.79;40.87695
59987;BME280;46181;51.498;5.392;2022-07-18T05:46:00;102155.2;;;24.04;40.19922
59987;BME280;46181;51.498;5.392;2022-07-18T05:50:30;102158.6;;;24.32;39.35938
59987;BME280;46181;51.498;5.392;2022-07-18T05:55:00;102151.3;;;24.59;38.75195
59987;BME280;46181;51.498;5.392;2022-07-18T05:59:30;102154.9;;;24.88;38.33398
59987;BME280;46181;51.498;5.392;2022-07-18T06:04:00;102150.8;;;25.17;37.46875
59987;BME280;46181;51.498;5.392;2022-07-18T06:08:30;102155.5;;;25.41;36.98535
59987;BME280;46181;51.498;5.392;2022-07-18T06:13:00;102156.5;;;25.66;36.27832
59987;BME280;46181;51.498;5.392;2022-07-18T06:17:30;102163;;;25.92;35.75977
59987;BME280;46181;51.498;5.392;2022-07-18T06:22:00;102152.8;;;26.21;35.3125
59987;BME280;46181;51.498;5.392;2022-07-18T06:26:30;102145.2;;;26.44;35.19043
59987;BME280;46181;51.498;5.392;2022-07-18T06:31:00;102143.9;;;26.63;34.875
59987;BME280;46181;51.498;5.392;2022-07-18T06:35:30;102133.3;;;26.81;34.44336
59987;BME280;46181;51.498;5.392;2022-07-18T06:40:00;102136.6;;;26.98;34.73828
59987;BME280;46181;51.498;5.392;2022-07-18T06:44:30;102128.8;;;27.22;34.14453
59987;BME280;46181;51.498;5.392;2022-07-18T06:49:00;102123.9;;;27.46;33.64453
59987;BME280;46181;51.498;5.392;2022-07-18T06:53:30;102119.6;;;27.67;33.41211
59987;BME280;46181;51.498;5.392;2022-07-18T06:58:00;102115.5;;;27.92;33.36035
59987;BME280;46181;51.498;5.392;2022-07-18T07:02:30;102125.5;;;28.21;32.12988
59987;BME280;46181;51.498;5.392;2022-07-18T07:07:00;102125.7;;;28.43;31.36719
59987;BME280;46181;51.498;5.392;2022-07-18T07:11:30;102125.7;;;28.64;31.35742
59987;BME280;46181;51.498;5.392;2022-07-18T07:16:00;102132.6;;;28.9;31.29199
59987;BME280;46181;51.498;5.392;2022-07-18T07:20:30;102131.1;;;29.18;30.53027
59987;BME280;46181;51.498;5.392;2022-07-18T07:25:00;102137.5;;;29.39;30.1416
59987;BME280;46181;51.498;5.392;2022-07-18T07:29:30;102132.4;;;29.59;30.14355
59987;BME280;46181;51.498;5.392;2022-07-18T07:34:00;102131.1;;;29.81;29.7793
59987;BME280;46181;51.498;5.392;2022-07-18T07:38:30;102131.2;;;30.06;29.71191
59987;BME280;46181;51.498;5.392;2022-07-18T07:47:30;102131.7;;;30.54;29.10254
59987;BME280;46181;51.498;5.392;2022-07-18T07:52:00;102128.4;;;30.82;27.95605
59987;BME280;46181;51.498;5.392;2022-07-18T07:56:30;102115.6;;;31.09;27.49609
59987;BME280;46181;51.498;5.392;2022-07-18T08:01:00;102105.3;;;31.29;27.21094
59987;BME280;46181;51.498;5.392;2022-07-18T08:05:31;102103.3;;;31.49;27.15137
59987;BME280;46181;51.498;5.392;2022-07-18T08:10:00;102097.7;;;31.63;26.38477
59987;BME280;46181;51.498;5.392;2022-07-18T08:14:30;102091.3;;;31.73;26.05664
59987;BME280;46181;51.498;5.392;2022-07-18T08:19:00;102085.5;;;31.83;26.11035
59987;BME280;46181;51.498;5.392;2022-07-18T08:23:30;102082.5;;;32.06;25.96875
59987;BME280;46181;51.498;5.392;2022-07-18T08:28:01;102076.9;;;32.3;25.44531
59987;BME280;46181;51.498;5.392;2022-07-18T08:32:30;102082.1;;;32.51;25.8623
59987;BME280;46181;51.498;5.392;2022-07-18T08:37:00;102085.9;;;32.76;25.54199
59987;BME280;46181;51.498;5.392;2022-07-18T08:41:31;102088.2;;;32.93;24.7627
59987;BME280;46181;51.498;5.392;2022-07-18T08:46:02;102096.3;;;33.01;24.66016
59987;BME280;46181;51.498;5.392;2022-07-18T08:50:30;102098.7;;;33.11;25.10742
59987;BME280;46181;51.498;5.392;2022-07-18T08:55:00;102093.8;;;33.18;24.91992
59987;BME280;46181;51.498;5.392;2022-07-18T08:59:30;102087.8;;;33.28;24.37598
59987;BME280;46181;51.498;5.392;2022-07-18T09:04:01;102082.5;;;33.47;24.73242
59987;BME280;46181;51.498;5.392;2022-07-18T09:08:30;102087.3;;;33.75;23.95703
59987;BME280;46181;51.498;5.392;2022-07-18T09:13:07;102090;;;33.91;23.96582
59987;BME280;46181;51.498;5.392;2022-07-18T09:17:33;102088.8;;;34.08;23.86621
59987;BME280;46181;51.498;5.392;2022-07-18T09:26:42;102094.2;;;34.4;23.61914
59987;BME280;46181;51.498;5.392;2022-07-18T09:31:00;102095.9;;;34.56;23.37598
59987;BME280;46181;51.498;5.392;2022-07-18T09:35:32;102096.4;;;34.64;24.06445
59987;BME280;46181;51.498;5.392;2022-07-18T09:40:01;102096.6;;;34.79;23.55566
59987;BME280;46181;51.498;5.392;2022-07-18T09:44:30;102093.6;;;34.9;23.95801
59987;BME280;46181;51.498;5.392;2022-07-18T09:49:16;102094.8;;;34.99;23.22949
59987;BME280;46181;51.498;5.392;2022-07-18T09:53:31;102093.6;;;35.02;22.8584
59987;BME280;46181;51.498;5.392;2022-07-18T09:58:06;102090.4;;;35.08;22.75391
59987;BME280;46181;51.498;5.392;2022-07-18T10:02:30;102083.4;;;35.17;23.31055
59987;BME280;46181;51.498;5.392;2022-07-18T10:07:00;102088.6;;;35.38;23.2373
59987;BME280;46181;51.498;5.392;2022-07-18T10:11:31;102076.1;;;35.45;22.375
59987;BME280;46181;51.498;5.392;2022-07-18T10:16:01;102080.2;;;35.56;22.65723
59987;BME280;46181;51.498;5.392;2022-07-18T10:20:35;102078.1;;;35.66;21.69824
59987;BME280;46181;51.498;5.392;2022-07-18T10:25:00;102078.8;;;35.79;21.8623
59987;BME280;46181;51.498;5.392;2022-07-18T10:29:30;102079.6;;;35.99;22.00293
59987;BME280;46181;51.498;5.392;2022-07-18T10:38:33;102067.9;;;36.34;21.42969
59987;BME280;46181;51.498;5.392;2022-07-18T10:47:37;102059.6;;;36.49;20.80859
59987;BME280;46181;51.498;5.392;2022-07-18T10:52:00;102061.5;;;36.57;21.21094
59987;BME280;46181;51.498;5.392;2022-07-18T11:01:10;102061;;;36.6;21.5625
59987;BME280;46181;51.498;5.392;2022-07-18T11:05:45;102052.8;;;36.7;21.67578
59987;BME280;46181;51.498;5.392;2022-07-18T11:10:00;102052.3;;;36.8;22.19922
59987;BME280;46181;51.498;5.392;2022-07-18T11:19:21;102048.5;;;37.04;21.42578
59987;BME280;46181;51.498;5.392;2022-07-18T11:23:32;102040.1;;;37.15;20.1748
59987;BME280;46181;51.498;5.392;2022-07-18T11:28:00;102037;;;37.24;19.52637
59987;BME280;46181;51.498;5.392;2022-07-18T11:32:32;102035.6;;;37.34;19.76074
59987;BME280;46181;51.498;5.392;2022-07-18T11:37:00;102027.9;;;37.5;19.19824
59987;BME280;46181;51.498;5.392;2022-07-18T11:41:31;102025.5;;;37.41;18.97754
59987;BME280;46181;51.498;5.392;2022-07-18T11:46:07;102027.6;;;37.49;19.35547
59987;BME280;46181;51.498;5.392;2022-07-18T11:50:42;102025;;;37.53;19.61133
59987;BME280;46181;51.498;5.392;2022-07-18T11:55:00;102022;;;37.57;19.83008
59987;BME280;46181;51.498;5.392;2022-07-18T11:59:41;102013.4;;;37.67;19.30273
59987;BME280;46181;51.498;5.392;2022-07-18T12:04:00;102015.4;;;37.72;19.23242
59987;BME280;46181;51.498;5.392;2022-07-18T12:08:42;102012.1;;;37.81;18.83594
59987;BME280;46181;51.498;5.392;2022-07-18T12:13:01;102012.5;;;37.98;19.0127
59987;BME280;46181;51.498;5.392;2022-07-18T12:17:30;102006.9;;;38.01;18.86816
59987;BME280;46181;51.498;5.392;2022-07-18T12:22:07;101995;;;37.97;18.67285
59987;BME280;46181;51.498;5.392;2022-07-18T12:26:40;101997.2;;;38.13;18.91016
59987;BME280;46181;51.498;5.392;2022-07-18T12:31:00;101994.3;;;38.17;18.92383
59987;BME280;46181;51.498;5.392;2022-07-18T12:35:32;101988;;;38.24;19.12012
59987;BME280;46181;51.498;5.392;2022-07-18T12:40:05;101985;;;38.37;19.06543
59987;BME280;46181;51.498;5.392;2022-07-18T12:44:30;101990.8;;;38.49;18.71875
59987;BME280;46181;51.498;5.392;2022-07-18T12:49:00;101987.1;;;38.53;18.67188
59987;BME280;46181;51.498;5.392;2022-07-18T12:53:31;101981.4;;;38.57;18.40625
59987;BME280;46181;51.498;5.392;2022-07-18T12:58:01;101979.8;;;38.64;18.34863
59987;BME280;46181;51.498;5.392;2022-07-18T13:02:30;101972.8;;;38.73;17.97559
59987;BME280;46181;51.498;5.392;2022-07-18T13:07:00;101965.2;;;38.83;17.7373
59987;BME280;46181;51.498;5.392;2022-07-18T13:11:30;101958.6;;;38.92;17.50977
59987;BME280;46181;51.498;5.392;2022-07-18T13:16:00;101956.4;;;38.92;16.92773
59987;BME280;46181;51.498;5.392;2022-07-18T13:20:31;101948.3;;;38.96;16.96582
59987;BME280;46181;51.498;5.392;2022-07-18T13:25:00;101948.5;;;39.07;16.87207
59987;BME280;46181;51.498;5.392;2022-07-18T13:29:30;101946.1;;;39.14;17.16602
59987;BME280;46181;51.498;5.392;2022-07-18T13:34:00;101942.6;;;39.3;16.96582
59987;BME280;46181;51.498;5.392;2022-07-18T13:38:30;101943.8;;;39.48;16.80176
59987;BME280;46181;51.498;5.392;2022-07-18T13:43:00;101939.9;;;39.57;16.66016
59987;BME280;46181;51.498;5.392;2022-07-18T13:47:30;101935.3;;;39.65;16.49219
59987;BME280;46181;51.498;5.392;2022-07-18T13:52:01;101931.7;;;39.67;15.98242
59987;BME280;46181;51.498;5.392;2022-07-18T13:56:30;101932;;;39.7;16.55469
59987;BME280;46181;51.498;5.392;2022-07-18T14:01:00;101931.9;;;39.78;16.45996
59987;BME280;46181;51.498;5.392;2022-07-18T14:05:30;101929.9;;;39.76;15.94922
59987;BME280;46181;51.498;5.392;2022-07-18T14:10:00;101923.1;;;39.74;16.16699
59987;BME280;46181;51.498;5.392;2022-07-18T14:14:30;101913.5;;;39.72;16.55566
59987;BME280;46181;51.498;5.392;2022-07-18T14:19:00;101908.1;;;39.88;16.13574
59987;BME280;46181;51.498;5.392;2022-07-18T14:23:30;101900.4;;;39.95;16.11328
59987;BME280;46181;51.498;5.392;2022-07-18T14:28:00;101899.8;;;39.97;15.67578
59987;BME280;46181;51.498;5.392;2022-07-18T14:32:30;101901.7;;;39.91;15.43066
59987;BME280;46181;51.498;5.392;2022-07-18T14:37:00;101895.6;;;39.87;16.0498
59987;BME280;46181;51.498;5.392;2022-07-18T14:41:30;101894.2;;;39.95;15.93066
59987;BME280;46181;51.498;5.392;2022-07-18T14:46:00;101887.3;;;40.01;15.75098
59987;BME280;46181;51.498;5.392;2022-07-18T14:50:31;101893.1;;;40.09;15.4248
59987;BME280;46181;51.498;5.392;2022-07-18T14:55:00;101891.8;;;40.1;15.43652
59987;BME280;46181;51.498;5.392;2022-07-18T14:59:30;101893.4;;;40.14;15.30469
59987;BME280;46181;51.498;5.392;2022-07-18T15:04:00;101889.3;;;40.11;15.35254
59987;BME280;46181;51.498;5.392;2022-07-18T15:08:30;101888.1;;;40.2;15.79297
59987;BME280;46181;51.498;5.392;2022-07-18T15:13:00;101891.9;;;40.29;15.80859
59987;BME280;46181;51.498;5.392;2022-07-18T15:17:30;101886.4;;;40.3;15.46777
59987;BME280;46181;51.498;5.392;2022-07-18T15:22:00;101877;;;40.35;15.33594
59987;BME280;46181;51.498;5.392;2022-07-18T15:26:30;101870;;;40.36;15.65332
59987;BME280;46181;51.498;5.392;2022-07-18T15:31:00;101869;;;40.39;15.33691
59987;BME280;46181;51.498;5.392;2022-07-18T15:35:30;101861.5;;;40.47;15.1084
59987;BME280;46181;51.498;5.392;2022-07-18T15:40:00;101865.1;;;40.57;14.74609
59987;BME280;46181;51.498;5.392;2022-07-18T15:44:31;101862.4;;;40.79;14.52051
59987;BME280;46181;51.498;5.392;2022-07-18T15:49:01;101856.9;;;41.65;14.19336
59987;BME280;46181;51.498;5.392;2022-07-18T15:53:30;101857.2;;;42.96;13.11816
59987;BME280;46181;51.498;5.392;2022-07-18T15:58:00;101848.6;;;44.56;12.00684
59987;BME280;46181;51.498;5.392;2022-07-18T16:02:30;101846.7;;;46.19;10.59082
59987;BME280;46181;51.498;5.392;2022-07-18T16:07:00;101851;;;47.44;9.665039
59987;BME280;46181;51.498;5.392;2022-07-18T16:11:31;101837.9;;;48.15;9.319336
59987;BME280;46181;51.498;5.392;2022-07-18T16:16:00;101837.8;;;48.84;9.035156
59987;BME280;46181;51.498;5.392;2022-07-18T16:20:30;101833.9;;;48.09;9.28125
59987;BME280;46181;51.498;5.392;2022-07-18T16:25:00;101830.1;;;45.38;10.54785
59987;BME280;46181;51.498;5.392;2022-07-18T16:29:31;101831.3;;;43.45;12.45703
59987;BME280;46181;51.498;5.392;2022-07-18T16:34:00;101820.5;;;42.17;13.63379
59987;BME280;46181;51.498;5.392;2022-07-18T16:38:30;101810.6;;;41.26;14.47461
59987;BME280;46181;51.498;5.392;2022-07-18T16:43:01;101805.1;;;40.65;15.06445
59987;BME280;46181;51.498;5.392;2022-07-18T16:47:31;101801.1;;;39.97;15.51758
59987;BME280;46181;51.498;5.392;2022-07-18T16:52:01;101794.5;;;39.51;16.07422
59987;BME280;46181;51.498;5.392;2022-07-18T16:56:31;101785.1;;;39.16;16.29199
59987;BME280;46181;51.498;5.392;2022-07-18T17:01:02;101791.4;;;38.72;16.75
59987;BME280;46181;51.498;5.392;2022-07-18T17:05:31;101793.6;;;38.41;16.99414
59987;BME280;46181;51.498;5.392;2022-07-18T17:10:02;101791.4;;;38.11;17.64941
59987;BME280;46181;51.498;5.392;2022-07-18T17:14:31;101787.5;;;37.81;17.80664
59987;BME280;46181;51.498;5.392;2022-07-18T17:19:01;101783.8;;;37.66;17.87402
59987;BME280;46181;51.498;5.392;2022-07-18T17:23:31;101779.6;;;37.46;18.22949
59987;BME280;46181;51.498;5.392;2022-07-18T17:28:01;101776.7;;;37.22;18.94531
59987;BME280;46181;51.498;5.392;2022-07-18T17:32:31;101777.5;;;37.06;18.81738
59987;BME280;46181;51.498;5.392;2022-07-18T17:37:02;101771.4;;;36.92;18.61816
59987;BME280;46181;51.498;5.392;2022-07-18T17:41:31;101764.6;;;36.77;18.66113
59987;BME280;46181;51.498;5.392;2022-07-18T17:46:02;101761.8;;;36.66;18.89746
59987;BME280;46181;51.498;5.392;2022-07-18T17:50:31;101757.2;;;36.56;18.89355
59987;BME280;46181;51.498;5.392;2022-07-18T17:55:01;101755.1;;;36.47;19.07129
59987;BME280;46181;51.498;5.392;2022-07-18T17:59:30;101755.6;;;36.43;19.08105
59987;BME280;46181;51.498;5.392;2022-07-18T18:04:00;101755.9;;;36.34;19.46387
59987;BME280;46181;51.498;5.392;2022-07-18T18:08:30;101755.6;;;36.24;19.78516
59987;BME280;46181;51.498;5.392;2022-07-18T18:13:00;101749.3;;;36.11;19.73145
59987;BME280;46181;51.498;5.392;2022-07-18T18:17:31;101748.9;;;36.02;20.13672
59987;BME280;46181;51.498;5.392;2022-07-18T18:22:01;101749;;;35.93;20.08496
59987;BME280;46181;51.498;5.392;2022-07-18T18:26:31;101748.2;;;35.81;20.77832
59987;BME280;46181;51.498;5.392;2022-07-18T18:31:00;101749.9;;;35.67;20.74805
59987;BME280;46181;51.498;5.392;2022-07-18T18:35:31;101755.8;;;35.53;20.9834
59987;BME280;46181;51.498;5.392;2022-07-18T18:40:00;101754.9;;;35.41;21.06152
59987;BME280;46181;51.498;5.392;2022-07-18T18:44:31;101756.5;;;35.33;21.4668
59987;BME280;46181;51.498;5.392;2022-07-18T18:49:00;101752.9;;;35.2;21.74902
59987;BME280;46181;51.498;5.392;2022-07-18T18:53:31;101749.4;;;35.07;22.04395
59987;BME280;46181;51.498;5.392;2022-07-18T18:58:00;101747.7;;;34.96;22.21875
59987;BME280;46181;51.498;5.392;2022-07-18T19:02:30;101745.4;;;34.83;22.37988
59987;BME280;46181;51.498;5.392;2022-07-18T19:07:00;101737.1;;;34.72;22.62695
59987;BME280;46181;51.498;5.392;2022-07-18T19:11:31;101742.1;;;34.59;23.13672
59987;BME280;46181;51.498;5.392;2022-07-18T19:16:01;101744.5;;;34.43;23.17676
59987;BME280;46181;51.498;5.392;2022-07-18T19:20:31;101743;;;34.29;23.54199
59987;BME280;46181;51.498;5.392;2022-07-18T19:25:00;101736.7;;;34.14;23.96582
59987;BME280;46181;51.498;5.392;2022-07-18T19:29:31;101739.6;;;33.98;24.18457
59987;BME280;46181;51.498;5.392;2022-07-18T19:34:01;101742.6;;;33.82;24.72754
59987;BME280;46181;51.498;5.392;2022-07-18T19:38:31;101744.4;;;33.62;25.49512
59987;BME280;46181;51.498;5.392;2022-07-18T19:43:01;101752.2;;;33.41;25.85449
59987;BME280;46181;51.498;5.392;2022-07-18T19:47:31;101747.4;;;33.27;26.12109
59987;BME280;46181;51.498;5.392;2022-07-18T19:52:01;101756.7;;;33.12;26.37598
59987;BME280;46181;51.498;5.392;2022-07-18T19:56:31;101760.9;;;32.97;26.72559
59987;BME280;46181;51.498;5.392;2022-07-18T20:01:01;101761.7;;;32.83;27.08789
59987;BME280;46181;51.498;5.392;2022-07-18T20:05:31;101759;;;32.72;27.42773
59987;BME280;46181;51.498;5.392;2022-07-18T20:10:01;101761.1;;;32.52;27.84473
59987;BME280;46181;51.498;5.392;2022-07-18T20:14:31;101761.5;;;32.37;28.3252
59987;BME280;46181;51.498;5.392;2022-07-18T20:19:01;101762.2;;;32.23;28.86426
59987;BME280;46181;51.498;5.392;2022-07-18T20:23:31;101762.2;;;32.07;29.46289
59987;BME280;46181;51.498;5.392;2022-07-18T20:28:01;101759.5;;;31.92;29.64355
59987;BME280;46181;51.498;5.392;2022-07-18T20:32:31;101763.9;;;31.75;30.13184
59987;BME280;46181;51.498;5.392;2022-07-18T20:37:01;101762.7;;;31.62;30.07617
59987;BME280;46181;51.498;5.392;2022-07-18T20:41:31;101753;;;31.51;30.18848
59987;BME280;46181;51.498;5.392;2022-07-18T20:46:01;101756.3;;;31.42;30.4082
59987;BME280;46181;51.498;5.392;2022-07-18T20:50:31;101756.3;;;31.27;30.86133
59987;BME280;46181;51.498;5.392;2022-07-18T20:55:01;101756.5;;;31.17;31.41406
59987;BME280;46181;51.498;5.392;2022-07-18T20:59:31;101751.5;;;31.04;31.85645
59987;BME280;46181;51.498;5.392;2022-07-18T21:04:01;101750;;;30.9;32.07227
59987;BME280;46181;51.498;5.392;2022-07-18T21:08:31;101744.3;;;30.77;32.51465
59987;BME280;46181;51.498;5.392;2022-07-18T21:13:01;101744.3;;;30.66;32.81445
59987;BME280;46181;51.498;5.392;2022-07-18T21:17:31;101742.9;;;30.51;33.07715
59987;BME280;46181;51.498;5.392;2022-07-18T21:22:01;101744.8;;;30.43;33.58105
59987;BME280;46181;51.498;5.392;2022-07-18T21:26:31;101748.6;;;30.33;34.02441
59987;BME280;46181;51.498;5.392;2022-07-18T21:31:01;101752.8;;;30.22;34.2168
59987;BME280;46181;51.498;5.392;2022-07-18T21:35:31;101749.9;;;30.11;34.43359
59987;BME280;46181;51.498;5.392;2022-07-18T21:40:01;101745;;;29.99;34.74512
59987;BME280;46181;51.498;5.392;2022-07-18T21:44:31;101744.5;;;29.9;35.17578
59987;BME280;46181;51.498;5.392;2022-07-18T21:49:01;101747.1;;;29.81;35.29883
59987;BME280;46181;51.498;5.392;2022-07-18T21:53:31;101747.9;;;29.68;35.47852
59987;BME280;46181;51.498;5.392;2022-07-18T21:58:01;101743.2;;;29.61;35.53223
59987;BME280;46181;51.498;5.392;2022-07-18T22:02:31;101746.2;;;29.49;35.79492
59987;BME280;46181;51.498;5.392;2022-07-18T22:07:01;101752.3;;;29.42;35.9541
59987;BME280;46181;51.498;5.392;2022-07-18T22:11:31;101754.3;;;29.31;36.08789
59987;BME280;46181;51.498;5.392;2022-07-18T22:16:01;101748.4;;;29.2;36.44531
59987;BME280;46181;51.498;5.392;2022-07-18T22:20:31;101749.7;;;29.13;36.46387
59987;BME280;46181;51.498;5.392;2022-07-18T22:25:01;101746.2;;;29;36.85449
59987;BME280;46181;51.498;5.392;2022-07-18T22:29:31;101741.1;;;28.89;37.23535
59987;BME280;46181;51.498;5.392;2022-07-18T22:34:01;101746.7;;;28.86;37.58691
59987;BME280;46181;51.498;5.392;2022-07-18T22:38:31;101735.9;;;28.77;37.55566
59987;BME280;46181;51.498;5.392;2022-07-18T22:43:01;101740.6;;;28.73;37.75293
59987;BME280;46181;51.498;5.392;2022-07-18T22:47:31;101737.6;;;28.66;37.74805
59987;BME280;46181;51.498;5.392;2022-07-18T22:52:01;101735.5;;;28.58;38.00098
59987;BME280;46181;51.498;5.392;2022-07-18T22:56:31;101737.4;;;28.51;38.17188
59987;BME280;46181;51.498;5.392;2022-07-18T23:01:01;101736.7;;;28.42;38.30469
59987;BME280;46181;51.498;5.392;2022-07-18T23:05:31;101737.6;;;28.31;38.5791
59987;BME280;46181;51.498;5.392;2022-07-18T23:10:01;101742.3;;;28.22;38.87695
59987;BME280;46181;51.498;5.392;2022-07-18T23:14:31;101735;;;28.16;39.08398
59987;BME280;46181;51.498;5.392;2022-07-18T23:19:01;101740.1;;;28.08;39.44238
59987;BME280;46181;51.498;5.392;2022-07-18T23:23:31;101731.8;;;27.98;39.63379
59987;BME280;46181;51.498;5.392;2022-07-18T23:28:01;101731.4;;;27.93;39.92383